Time;durP1;ratioP1;P1;durP2;ratioP2;P2;SDS_P1;SDS_P2;PMS_P1;PMS_P2;Temp;Humidity;BMP_temperature;BMP_pressure;BME280_temperature;BME280_humidity;BME280_pressure;Samples;Min_cycle;Max_cycle;Signal;HPM_P1;HPM_P2
2022/12/25 00:03:21;;;;;;;15.13;4.90;;;7.60;99.90;;;;;;7291667;32;20171;-59
2022/12/25 00:07:23;;;;;;;18.65;5.47;;;7.60;99.90;;;;;;7290328;32;20127;-59
2022/12/25 00:11:24;;;;;;;13.07;4.68;;;7.70;99.90;;;;;;7294578;32;20286;-60
2022/12/25 00:15:26;;;;;;;15.88;4.70;;;7.80;99.90;;;;;;7289063;32;20369;-60
2022/12/25 00:19:28;;;;;;;14.95;4.32;;;7.90;99.90;;;;;;7290553;32;20112;-60
2022/12/25 00:23:30;;;;;;;16.20;5.45;;;8.00;99.90;;;;;;7291934;32;20557;-60
2022/12/25 00:27:32;;;;;;;17.33;5.03;;;8.00;99.90;;;;;;7291258;32;20161;-60
2022/12/25 00:31:34;;;;;;;20.35;4.97;;;8.00;99.90;;;;;;7292469;32;20246;-59
2022/12/25 00:35:36;;;;;;;14.75;3.95;;;8.00;99.90;;;;;;7299516;32;20880;-60
2022/12/25 00:39:39;;;;;;;14.35;3.90;;;8.10;99.90;;;;;;7292431;32;20828;-60
2022/12/25 00:43:41;;;;;;;12.68;3.90;;;8.20;99.90;;;;;;7298951;32;20203;-60
2022/12/25 00:47:43;;;;;;;12.52;4.18;;;8.20;99.90;;;;;;7299479;32;20115;-60
2022/12/25 00:51:45;;;;;;;16.02;4.25;;;8.20;99.90;;;;;;7297885;32;20116;-60
2022/12/25 00:55:52;;;;;;;13.90;3.90;;;8.20;99.90;;;;;;7300100;32;20120;-60
2022/12/25 00:59:53;;;;;;;13.50;3.17;;;8.30;99.90;;;;;;7297470;32;20739;-60
2022/12/25 01:03:55;;;;;;;14.02;3.47;;;8.40;99.90;;;;;;7294303;32;20763;-60
2022/12/25 01:07:57;;;;;;;9.52;2.95;;;8.40;99.90;;;;;;7299915;32;20142;-60
2022/12/25 01:11:58;;;;;;;11.43;2.90;;;8.40;99.90;;;;;;7297639;32;20280;-60
2022/12/25 01:16:08;;;;;;;12.88;3.30;;;8.40;99.90;;;;;;7296871;32;20104;-60
2022/12/25 01:20:12;;;;;;;9.90;2.75;;;8.40;99.90;;;;;;7299189;32;20160;-59
2022/12/25 01:24:13;;;;;;;10.38;2.95;;;8.50;99.90;;;;;;7296515;32;20112;-59
2022/12/25 01:28:15;;;;;;;9.55;2.60;;;8.60;99.90;;;;;;7297295;32;20263;-60
2022/12/25 01:32:17;;;;;;;11.52;3.03;;;8.60;99.90;;;;;;7293681;32;20142;-59
2022/12/25 01:36:22;;;;;;;15.25;3.35;;;8.60;99.90;;;;;;7297245;32;20350;-59
2022/12/25 01:40:23;;;;;;;11.55;3.28;;;8.70;99.90;;;;;;7296270;32;20712;-60
2022/12/25 01:44:34;;;;;;;10.85;3.28;;;8.70;99.90;;;;;;7283450;32;20147;-60
2022/12/25 01:48:38;;;;;;;9.20;2.15;;;8.60;99.90;;;;;;7281714;32;20789;-59
2022/12/25 01:52:40;;;;;;;11.98;3.03;;;8.70;99.90;;;;;;7297105;32;20197;-59
2022/12/25 01:56:44;;;;;;;10.95;2.55;;;8.70;99.90;;;;;;7297666;32;20478;-61
2022/12/25 02:00:46;;;;;;;9.27;2.42;;;8.80;99.90;;;;;;7294960;32;20267;-59
2022/12/25 02:05:18;;;;;;;13.15;3.28;;;8.80;99.90;;;;;;7293910;32;20157;-59
2022/12/25 02:09:20;;;;;;;11.68;2.67;;;8.80;99.90;;;;;;7291154;32;20199;-60
2022/12/25 02:13:22;;;;;;;8.93;2.47;;;8.80;99.90;;;;;;7296035;32;20520;-60
2022/12/25 02:17:46;;;;;;;10.68;2.62;;;9.00;99.90;;;;;;7293861;32;20199;-60
2022/12/25 02:22:14;;;;;;;7.87;2.50;;;8.90;99.90;;;;;;7294629;32;20948;-59
2022/12/25 02:26:44;;;;;;;10.18;2.87;;;8.90;99.90;;;;;;7296004;32;20121;-60
2022/12/25 02:30:55;;;;;;;7.00;2.42;;;9.00;99.90;;;;;;7293735;32;20126;-59
2022/12/25 02:35:13;;;;;;;6.47;2.40;;;9.00;99.90;;;;;;7297151;32;20165;-60
2022/12/25 03:18:48;;;;;;;7.00;2.37;;;9.10;99.90;;;;;;7293547;32;20221;-60
2022/12/25 03:27:12;;;;;;;9.00;2.60;;;9.00;99.90;;;;;;7292160;32;20142;-59
2022/12/25 03:31:37;;;;;;;9.32;2.47;;;9.10;99.90;;;;;;7293843;32;20641;-60
2022/12/25 03:35:49;;;;;;;6.12;1.92;;;9.10;99.90;;;;;;7283618;32;20104;-61
2022/12/25 04:37:46;;;;;;;7.28;1.98;;;9.10;99.90;;;;;;7299065;32;20663;-60
2022/12/25 04:41:48;;;;;;;9.07;2.22;;;9.20;99.90;;;;;;7299938;32;20200;-59
2022/12/25 04:45:53;;;;;;;8.45;2.20;;;9.20;99.90;;;;;;7296042;32;20104;-60
2022/12/25 04:49:55;;;;;;;8.68;1.95;;;9.30;99.90;;;;;;7299480;32;20585;-60
2022/12/25 04:53:57;;;;;;;11.27;1.67;;;9.30;99.90;;;;;;7294522;32;20112;-60
2022/12/25 04:57:58;;;;;;;7.82;1.98;;;9.30;99.90;;;;;;7297324;32;20189;-60
2022/12/25 05:02:00;;;;;;;7.20;1.87;;;9.40;99.90;;;;;;7291259;32;20127;-60
2022/12/25 05:06:03;;;;;;;8.07;2.30;;;9.40;99.90;;;;;;7294695;32;20249;-60
2022/12/25 05:10:06;;;;;;;5.65;1.83;;;9.40;99.90;;;;;;7301015;32;20108;-59
2022/12/25 05:14:07;;;;;;;7.15;1.75;;;9.40;99.90;;;;;;7295914;32;20175;-60
2022/12/25 05:18:09;;;;;;;8.50;2.45;;;9.40;99.90;;;;;;7292188;32;20115;-60
2022/12/25 05:22:11;;;;;;;8.45;1.83;;;9.40;99.90;;;;;;7296432;32;20165;-59
2022/12/25 05:26:22;;;;;;;9.63;2.30;;;9.40;99.90;;;;;;7284062;32;20168;-60
2022/12/25 05:30:24;;;;;;;11.07;2.03;;;9.40;99.90;;;;;;7287663;32;20357;-59
2022/12/25 05:34:25;;;;;;;8.07;2.37;;;9.40;99.90;;;;;;7296185;32;20135;-59
2022/12/25 05:38:27;;;;;;;10.52;2.10;;;9.50;99.90;;;;;;7297257;32;20161;-59
2022/12/25 05:42:29;;;;;;;11.82;2.30;;;9.50;99.90;;;;;;7296829;32;20254;-60
2022/12/25 05:46:30;;;;;;;7.43;1.83;;;9.40;99.90;;;;;;7296180;32;20112;-60
2022/12/25 05:50:35;;;;;;;10.00;2.10;;;9.40;99.90;;;;;;7296311;32;20189;-60
2022/12/25 05:54:36;;;;;;;6.18;1.90;;;9.30;99.90;;;;;;7299359;32;20107;-60
2022/12/25 05:58:39;;;;;;;10.85;2.08;;;9.30;99.90;;;;;;7299082;32;20499;-59
2022/12/25 06:02:41;;;;;;;9.13;2.05;;;9.20;99.90;;;;;;7295396;32;20112;-59
2022/12/25 06:06:42;;;;;;;9.60;1.70;;;9.10;99.90;;;;;;7294551;32;20107;-60
2022/12/25 06:10:44;;;;;;;6.45;2.10;;;9.10;99.90;;;;;;7283022;32;20120;-60
2022/12/25 06:14:46;;;;;;;12.05;2.05;;;9.00;99.90;;;;;;7294866;32;20263;-60
2022/12/25 06:18:51;;;;;;;6.60;2.00;;;9.10;99.90;;;;;;7295667;32;20385;-60
2022/12/25 06:22:52;;;;;;;7.30;1.70;;;8.90;99.90;;;;;;7296337;32;20203;-60
2022/12/25 06:26:54;;;;;;;9.18;1.95;;;8.80;99.90;;;;;;7294458;32;20256;-59
2022/12/25 06:30:55;;;;;;;8.48;2.08;;;8.80;99.90;;;;;;7280262;32;20712;-59
2022/12/25 06:34:57;;;;;;;7.22;1.55;;;8.70;99.90;;;;;;7296692;32;20301;-59
2022/12/25 06:39:00;;;;;;;9.95;1.55;;;8.70;99.90;;;;;;7297839;32;20228;-59
2022/12/25 06:43:02;;;;;;;8.30;1.87;;;8.70;99.90;;;;;;7287401;32;20224;-60
2022/12/25 06:47:04;;;;;;;10.15;2.15;;;8.60;99.90;;;;;;7294265;32;20108;-60
2022/12/25 06:51:06;;;;;;;4.87;1.25;;;8.60;99.90;;;;;;7277624;32;20195;-60
2022/12/25 06:55:08;;;;;;;6.20;1.48;;;8.60;99.90;;;;;;7293579;32;20107;-60
2022/12/25 06:59:10;;;;;;;8.80;1.98;;;8.50;99.90;;;;;;7288776;32;20109;-60
2022/12/25 07:03:19;;;;;;;8.65;1.52;;;8.60;99.90;;;;;;7298654;32;20302;-61
2022/12/25 07:07:22;;;;;;;8.60;2.05;;;8.80;99.90;;;;;;7290182;32;20173;-59
2022/12/25 07:11:24;;;;;;;5.60;1.30;;;8.80;99.90;;;;;;7284984;32;20260;-59
2022/12/25 07:15:26;;;;;;;5.80;1.65;;;8.80;99.90;;;;;;7275618;32;20527;-60
2022/12/25 07:19:27;;;;;;;5.87;1.25;;;8.80;99.90;;;;;;7292445;32;20130;-59
2022/12/25 07:23:29;;;;;;;8.23;1.67;;;8.80;99.90;;;;;;7293446;32;20223;-60
2022/12/25 07:27:31;;;;;;;5.85;1.40;;;8.90;99.90;;;;;;7291313;32;20115;-59
2022/12/25 07:31:32;;;;;;;11.88;1.70;;;9.00;99.90;;;;;;7287041;32;20236;-61
2022/12/25 07:35:34;;;;;;;9.73;1.75;;;9.10;99.90;;;;;;7302970;32;20177;-61
2022/12/25 07:39:36;;;;;;;5.30;1.30;;;9.20;99.90;;;;;;7294822;32;20482;-64
2022/12/25 07:43:38;;;;;;;7.32;1.60;;;9.20;99.90;;;;;;7295672;32;20218;-63
2022/12/25 07:47:39;;;;;;;7.80;1.98;;;9.30;99.90;;;;;;7292730;32;20195;-61
2022/12/25 07:51:41;;;;;;;5.50;1.62;;;9.30;99.90;;;;;;7292912;32;20112;-65
2022/12/25 07:55:43;;;;;;;5.53;1.30;;;9.30;99.90;;;;;;7294001;32;20133;-65
2022/12/25 07:59:45;;;;;;;9.48;1.50;;;9.30;99.90;;;;;;7293932;32;20131;-64
2022/12/25 08:03:51;;;;;;;7.70;1.70;;;9.30;99.90;;;;;;7294132;32;20108;-62
2022/12/25 08:07:54;;;;;;;9.85;2.20;;;9.30;99.90;;;;;;7292551;32;20822;-64
2022/12/25 08:11:58;;;;;;;9.32;1.87;;;9.30;99.90;;;;;;7293293;32;20096;-64
2022/12/25 08:16:02;;;;;;;8.98;2.15;;;9.40;99.90;;;;;;7293576;32;21095;-63
2022/12/25 08:20:05;;;;;;;8.63;1.85;;;9.40;99.90;;;;;;7294022;32;20565;-63
2022/12/25 08:24:06;;;;;;;7.68;2.15;;;9.50;99.90;;;;;;7294444;32;20341;-64
2022/12/25 08:28:08;;;;;;;8.43;2.03;;;9.60;99.90;;;;;;7288335;32;20134;-64
2022/12/25 08:32:10;;;;;;;12.20;2.42;;;9.60;99.90;;;;;;7290750;32;20257;-63
2022/12/25 08:36:12;;;;;;;5.97;2.17;;;9.60;99.90;;;;;;7288684;32;20108;-64
2022/12/25 08:40:14;;;;;;;10.18;2.35;;;9.50;99.90;;;;;;7291461;32;20166;-63
2022/12/25 08:44:15;;;;;;;8.35;2.12;;;9.50;99.90;;;;;;7295047;32;20104;-62
2022/12/25 08:48:17;;;;;;;6.87;1.92;;;9.50;99.90;;;;;;7286968;32;20223;-62
2022/12/25 08:52:19;;;;;;;6.72;2.00;;;9.60;99.90;;;;;;7282282;32;20183;-62
2022/12/25 08:56:21;;;;;;;8.05;2.40;;;9.80;99.90;;;;;;7297508;32;20786;-62
2022/12/25 09:00:23;;;;;;;6.32;2.35;;;9.80;99.90;;;;;;7296029;32;20350;-63
2022/12/25 09:04:24;;;;;;;7.47;2.08;;;9.70;99.90;;;;;;7291616;32;20207;-64
2022/12/25 09:08:26;;;;;;;6.50;2.17;;;9.70;99.90;;;;;;7296053;32;21453;-64
2022/12/25 09:12:28;;;;;;;6.07;2.62;;;9.70;99.90;;;;;;7286367;32;20103;-62
2022/12/25 09:16:29;;;;;;;9.52;2.45;;;9.70;99.90;;;;;;7294555;32;20307;-62
2022/12/25 09:20:32;;;;;;;8.18;3.15;;;9.70;99.90;;;;;;7294858;32;20134;-65
2022/12/25 09:24:33;;;;;;;7.45;2.58;;;9.70;99.90;;;;;;7297462;32;20127;-63
2022/12/25 09:28:35;;;;;;;8.55;3.15;;;9.80;99.90;;;;;;7298453;32;20467;-65
2022/12/25 09:32:39;;;;;;;5.62;2.67;;;9.70;99.90;;;;;;7301990;32;20210;-64
2022/12/25 09:36:40;;;;;;;7.57;3.10;;;9.60;99.90;;;;;;7298484;32;21052;-64
2022/12/25 09:40:42;;;;;;;7.12;2.75;;;9.70;99.90;;;;;;7299125;32;20158;-64
2022/12/25 09:44:50;;;;;;;10.57;3.05;;;9.70;99.90;;;;;;7292248;32;20282;-63
2022/12/25 09:49:11;;;;;;;8.40;3.20;;;9.70;99.90;;;;;;7288463;32;20462;-64
2022/12/25 09:53:22;;;;;;;7.12;3.20;;;9.60;99.90;;;;;;7295718;32;20146;-64
2022/12/25 09:57:25;;;;;;;8.18;3.28;;;9.60;99.90;;;;;;7296079;32;20702;-63
2022/12/25 10:01:34;;;;;;;9.50;3.53;;;9.60;99.90;;;;;;7293028;32;20709;-62
2022/12/25 10:06:15;;;;;;;8.48;3.22;;;9.50;99.90;;;;;;7299053;32;20258;-62
2022/12/25 10:10:50;;;;;;;10.85;3.55;;;9.40;99.90;;;;;;7292533;32;20753;-63
2022/12/25 10:15:03;;;;;;;8.35;4.03;;;9.40;99.90;;;;;;7294064;32;20536;-63
2022/12/25 10:19:53;;;;;;;8.68;3.60;;;9.40;99.90;;;;;;7296117;32;20130;-63
2022/12/25 10:24:00;;;;;;;8.68;3.90;;;9.40;99.90;;;;;;7282737;32;20634;-63
2022/12/25 10:28:11;;;;;;;8.05;4.10;;;9.40;99.90;;;;;;7297059;32;20419;-63
2022/12/25 10:32:13;;;;;;;7.93;3.60;;;9.40;99.90;;;;;;7297727;32;20685;-63
2022/12/25 10:36:20;;;;;;;10.15;3.45;;;9.50;99.90;;;;;;7293738;32;20113;-62
2022/12/25 10:40:22;;;;;;;9.73;4.20;;;9.60;99.90;;;;;;7289644;32;20188;-63
2022/12/25 10:44:24;;;;;;;8.85;3.72;;;9.50;99.90;;;;;;7289523;32;20286;-62
2022/12/25 10:48:29;;;;;;;6.72;3.67;;;9.60;99.90;;;;;;7283668;32;20596;-63
2022/12/25 10:52:30;;;;;;;8.07;3.70;;;9.50;99.90;;;;;;7296745;32;20116;-63
2022/12/25 10:56:32;;;;;;;7.93;3.37;;;9.50;99.90;;;;;;7290399;32;20222;-63
2022/12/25 11:00:34;;;;;;;12.50;5.65;;;9.50;99.90;;;;;;7293034;32;20234;-63
2022/12/25 11:04:36;;;;;;;14.05;3.70;;;9.60;99.90;;;;;;7292349;32;20442;-62
2022/12/25 11:08:38;;;;;;;7.93;3.33;;;9.60;99.90;;;;;;7290911;32;20297;-62
2022/12/25 11:12:44;;;;;;;8.32;3.53;;;9.50;99.90;;;;;;7291168;32;20257;-62
2022/12/25 11:16:46;;;;;;;8.75;3.72;;;9.60;99.90;;;;;;7281354;32;20103;-62
2022/12/25 11:20:53;;;;;;;10.15;4.03;;;9.50;99.90;;;;;;7287418;32;20112;-61
2022/12/25 11:24:55;;;;;;;5.90;3.35;;;9.50;99.90;;;;;;7294958;32;20226;-62
2022/12/25 11:28:58;;;;;;;9.57;4.18;;;9.50;99.90;;;;;;7279769;32;20577;-63
2022/12/25 11:33:09;;;;;;;10.20;4.25;;;9.50;99.90;;;;;;7295604;32;20107;-62
2022/12/25 11:37:26;;;;;;;6.00;3.45;;;9.60;99.90;;;;;;7295805;32;20290;-62
2022/12/25 11:41:32;;;;;;;7.33;3.73;;;9.70;99.90;;;;;;7287676;32;20143;-62
2022/12/25 11:45:40;;;;;;;7.07;3.30;;;9.70;99.90;;;;;;7286283;32;20793;-63
2022/12/25 11:49:52;;;;;;;5.70;3.62;;;9.80;99.90;;;;;;7288925;32;20154;-65
2022/12/25 11:54:19;;;;;;;7.45;3.60;;;9.70;99.90;;;;;;7290430;32;20136;-64
2022/12/25 11:58:43;;;;;;;7.43;3.25;;;9.80;99.90;;;;;;7296604;32;20341;-63
2022/12/25 12:02:57;;;;;;;7.87;3.78;;;9.90;99.90;;;;;;7294637;32;20173;-62
2022/12/25 12:07:05;;;;;;;7.43;3.65;;;9.80;99.90;;;;;;7289651;32;20131;-62
2022/12/25 12:11:34;;;;;;;6.12;3.50;;;9.90;99.90;;;;;;7292442;32;20255;-63
2022/12/25 12:15:47;;;;;;;7.35;3.40;;;9.80;99.90;;;;;;7292395;32;20212;-62
2022/12/25 12:19:50;;;;;;;7.87;3.75;;;9.70;99.90;;;;;;7285820;32;20238;-61
2022/12/25 12:23:55;;;;;;;7.18;3.60;;;9.70;99.90;;;;;;7288996;32;20597;-64
2022/12/25 12:27:59;;;;;;;7.05;3.83;;;9.70;99.90;;;;;;7295026;32;20153;-62
2022/12/25 12:32:28;;;;;;;6.18;3.58;;;9.70;99.90;;;;;;7295447;32;20336;-63
2022/12/25 12:36:30;;;;;;;6.37;3.60;;;9.80;99.90;;;;;;7297627;32;20111;-62
2022/12/25 12:40:49;;;;;;;7.30;3.95;;;9.70;99.90;;;;;;7299768;32;20127;-62
2022/12/25 12:44:56;;;;;;;8.40;3.90;;;9.70;99.90;;;;;;7298163;32;20305;-62
2022/12/25 12:49:22;;;;;;;6.25;4.15;;;9.70;99.90;;;;;;7299912;32;20496;-63
2022/12/25 12:53:24;;;;;;;6.43;3.72;;;9.60;99.90;;;;;;7292678;32;20138;-62
2022/12/25 12:57:30;;;;;;;8.73;4.07;;;9.70;99.90;;;;;;7290972;32;20192;-62
2022/12/25 13:01:54;;;;;;;6.73;3.83;;;9.70;99.90;;;;;;7295854;32;20291;-64
2022/12/25 13:06:17;;;;;;;7.82;3.72;;;9.80;99.90;;;;;;7294463;32;20704;-62
2022/12/25 13:10:34;;;;;;;8.93;4.45;;;9.80;99.90;;;;;;7298639;32;20464;-62
2022/12/25 13:14:36;;;;;;;7.40;4.10;;;9.80;99.90;;;;;;7292278;32;20584;-61
2022/12/25 13:18:38;;;;;;;8.30;4.07;;;9.80;99.90;;;;;;7286462;32;20248;-61
2022/12/25 13:22:40;;;;;;;9.95;4.32;;;9.90;99.90;;;;;;7271968;32;20229;-61
2022/12/25 13:26:42;;;;;;;8.82;4.25;;;9.90;99.90;;;;;;7283765;32;20120;-62
2022/12/25 13:30:44;;;;;;;9.02;4.10;;;9.80;99.90;;;;;;7292597;32;20243;-61
2022/12/25 13:34:45;;;;;;;9.88;4.87;;;9.90;99.90;;;;;;7288685;32;20119;-61
2022/12/25 13:38:50;;;;;;;7.35;4.25;;;9.90;99.90;;;;;;7289778;32;20721;-61
2022/12/25 13:42:57;;;;;;;6.87;4.70;;;9.90;99.90;;;;;;7296370;32;20356;-60
2022/12/25 13:47:18;;;;;;;;;;;9.90;99.90;;;;;;7296906;32;20116;-60
2022/12/25 13:51:19;;;;;;;8.15;4.72;;;9.90;99.90;;;;;;7296875;32;20037;-60
2022/12/25 13:55:29;;;;;;;8.02;4.55;;;10.10;99.90;;;;;;7294725;32;20568;-60
2022/12/25 13:59:31;;;;;;;9.77;5.30;;;10.00;99.90;;;;;;7282614;32;20221;-61
2022/12/25 14:03:40;;;;;;;8.70;5.10;;;10.10;99.90;;;;;;7291243;32;20170;-61
2022/12/25 14:07:42;;;;;;;12.70;6.55;;;10.10;99.90;;;;;;7290549;32;20595;-64
2022/12/25 14:11:48;;;;;;;9.98;5.70;;;10.20;99.90;;;;;;7294015;32;20164;-62
2022/12/25 14:15:52;;;;;;;12.95;7.05;;;10.10;99.90;;;;;;7296814;32;20199;-62
2022/12/25 14:19:58;;;;;;;12.48;5.70;;;10.10;99.90;;;;;;7290972;32;20206;-62
2022/12/25 14:24:15;;;;;;;9.35;6.57;;;10.10;99.90;;;;;;7295783;32;20176;-63
2022/12/25 14:28:23;;;;;;;9.65;6.07;;;10.20;99.90;;;;;;7295187;32;20123;-62
2022/12/25 14:32:28;;;;;;;11.80;6.45;;;10.20;99.90;;;;;;7295335;32;20745;-64
2022/12/25 14:36:32;;;;;;;9.77;6.72;;;10.20;99.90;;;;;;7296721;32;20249;-62
2022/12/25 14:40:34;;;;;;;12.30;6.55;;;10.30;99.90;;;;;;7296819;32;20120;-63
2022/12/25 14:44:39;;;;;;;14.20;7.15;;;10.30;99.90;;;;;;7296378;32;20638;-63
2022/12/25 14:48:40;;;;;;;11.98;7.40;;;10.30;99.90;;;;;;7292160;32;20197;-63
2022/12/25 14:52:44;;;;;;;8.82;6.87;;;10.30;99.90;;;;;;7283925;32;20275;-63
2022/12/25 14:56:47;;;;;;;11.60;6.72;;;10.40;99.90;;;;;;7295493;32;20126;-63
2022/12/25 15:00:57;;;;;;;13.68;7.65;;;10.30;99.90;;;;;;7295056;32;20498;-63
2022/12/25 15:04:59;;;;;;;10.75;7.47;;;10.30;99.90;;;;;;7296057;32;20210;-62
2022/12/25 15:09:13;;;;;;;12.52;7.35;;;10.30;99.90;;;;;;7293160;32;20202;-63
2022/12/25 15:13:18;;;;;;;12.30;7.28;;;10.40;99.90;;;;;;7295221;32;20155;-63
2022/12/25 15:17:26;;;;;;;10.15;7.57;;;10.30;99.90;;;;;;7286162;32;20134;-63
2022/12/25 15:21:30;;;;;;;10.75;6.85;;;10.20;99.90;;;;;;7290383;32;20108;-63
2022/12/25 15:25:32;;;;;;;10.52;7.03;;;10.30;99.90;;;;;;7289714;32;20210;-65
2022/12/25 15:29:33;;;;;;;11.38;7.45;;;10.30;99.90;;;;;;7290859;32;20560;-64
2022/12/25 15:33:57;;;;;;;11.35;7.37;;;10.30;99.90;;;;;;7291411;32;20252;-62
2022/12/25 15:37:59;;;;;;;14.98;8.23;;;10.30;99.90;;;;;;7296239;32;20135;-62
2022/12/25 15:42:10;;;;;;;12.52;8.20;;;10.30;99.90;;;;;;7291950;32;20330;-60
2022/12/25 15:46:11;;;;;;;10.05;7.95;;;10.40;99.90;;;;;;7293117;32;20144;-60
2022/12/25 15:50:14;;;;;;;10.70;7.05;;;10.40;99.90;;;;;;7294138;32;20127;-60
2022/12/25 15:54:16;;;;;;;11.60;6.85;;;10.50;99.90;;;;;;7279627;32;20219;-60
2022/12/25 15:58:18;;;;;;;10.57;7.37;;;10.50;99.90;;;;;;7294827;32;20135;-62
2022/12/25 16:02:19;;;;;;;11.05;7.07;;;10.50;99.90;;;;;;7291978;32;20165;-62
2022/12/25 16:06:22;;;;;;;10.68;7.32;;;10.40;99.90;;;;;;7296582;32;20572;-63
2022/12/25 16:10:23;;;;;;;11.20;7.82;;;10.40;99.90;;;;;;7302305;32;20207;-63
2022/12/25 16:14:25;;;;;;;10.65;7.78;;;10.40;99.90;;;;;;7298543;32;20114;-62
2022/12/25 16:18:28;;;;;;;14.15;8.80;;;10.40;99.90;;;;;;7296252;32;20120;-62
2022/12/25 16:22:38;;;;;;;11.98;7.80;;;10.40;99.90;;;;;;7299483;32;20345;-62
2022/12/25 16:26:40;;;;;;;14.45;7.70;;;10.40;99.90;;;;;;7296881;32;20230;-63
2022/12/25 16:30:42;;;;;;;12.02;7.20;;;10.50;99.90;;;;;;7298992;32;20829;-63
2022/12/25 16:34:44;;;;;;;11.40;7.10;;;10.60;99.90;;;;;;7288030;32;20112;-63
2022/12/25 16:38:45;;;;;;;12.37;7.37;;;10.60;99.90;;;;;;7293277;32;20165;-61
2022/12/25 16:42:47;;;;;;;10.95;7.28;;;10.60;99.90;;;;;;7291757;32;20112;-62
2022/12/25 16:46:49;;;;;;;12.10;7.47;;;10.70;99.90;;;;;;7290364;32;20263;-62
2022/12/25 16:50:51;;;;;;;10.82;7.00;;;10.70;99.90;;;;;;7296596;32;20166;-62
2022/12/25 16:54:52;;;;;;;11.68;7.05;;;10.70;99.90;;;;;;7293476;32;20842;-63
2022/12/25 16:58:56;;;;;;;10.20;7.20;;;10.60;99.90;;;;;;7294318;32;20151;-62
2022/12/25 17:02:59;;;;;;;7.65;6.20;;;10.60;99.90;;;;;;7298933;32;20166;-61
2022/12/25 17:07:01;;;;;;;9.90;6.47;;;10.70;99.90;;;;;;7294531;32;20554;-62
2022/12/25 17:11:04;;;;;;;8.63;6.00;;;10.70;99.90;;;;;;7299365;32;20242;-62
2022/12/25 17:15:06;;;;;;;10.27;5.95;;;10.80;99.90;;;;;;7293572;32;20776;-62
2022/12/25 17:19:19;;;;;;;7.80;5.47;;;10.80;99.90;;;;;;7288933;32;20108;-61
2022/12/25 17:23:21;;;;;;;10.70;6.00;;;10.90;99.90;;;;;;7292110;32;20127;-62
2022/12/25 17:27:22;;;;;;;8.90;5.40;;;10.90;99.90;;;;;;7294830;32;23438;-59
2022/12/25 17:31:24;;;;;;;11.48;6.40;;;11.00;99.90;;;;;;7294180;32;20104;-59
2022/12/25 17:35:26;;;;;;;11.40;5.78;;;10.90;99.90;;;;;;7294130;32;20197;-60
2022/12/25 17:39:27;;;;;;;9.02;5.43;;;11.00;99.90;;;;;;7295402;32;20583;-60
2022/12/25 17:43:30;;;;;;;12.70;5.53;;;11.10;99.90;;;;;;7294106;32;20223;-60
2022/12/25 17:47:31;;;;;;;8.68;5.05;;;11.10;99.90;;;;;;7292103;32;20269;-61
2022/12/25 17:51:33;;;;;;;8.90;5.47;;;11.20;99.90;;;;;;7288192;32;20135;-59
2022/12/25 17:55:40;;;;;;;9.75;5.43;;;11.20;99.90;;;;;;7291918;32;20346;-59
2022/12/25 17:59:41;;;;;;;9.10;5.55;;;11.10;99.90;;;;;;7292830;32;20203;-62
2022/12/25 18:03:44;;;;;;;7.53;5.18;;;11.20;99.90;;;;;;7293292;32;20901;-59
2022/12/25 18:07:46;;;;;;;7.82;5.12;;;11.10;99.90;;;;;;7288918;32;20122;-59
2022/12/25 18:11:47;;;;;;;9.70;6.40;;;11.10;99.90;;;;;;7294716;32;20165;-58
2022/12/25 18:15:49;;;;;;;9.52;5.75;;;11.10;99.90;;;;;;7290733;32;20139;-59
2022/12/25 18:19:51;;;;;;;11.98;6.28;;;11.00;99.90;;;;;;7295355;32;20107;-60
2022/12/25 18:23:53;;;;;;;12.95;6.95;;;11.10;99.90;;;;;;7293760;32;20328;-59
2022/12/25 18:27:55;;;;;;;9.77;6.25;;;11.00;99.90;;;;;;7289453;32;20127;-59
2022/12/25 18:31:57;;;;;;;9.77;6.20;;;11.00;99.90;;;;;;7292711;32;20100;-58
2022/12/25 18:36:00;;;;;;;11.38;7.05;;;10.90;99.90;;;;;;7294931;32;20146;-58
2022/12/25 18:40:03;;;;;;;10.35;6.82;;;10.80;99.90;;;;;;7293598;32;20245;-59
2022/12/25 18:44:05;;;;;;;11.18;6.60;;;10.80;99.90;;;;;;7293836;32;20113;-59
2022/12/25 18:48:07;;;;;;;10.43;6.50;;;10.60;99.90;;;;;;7285444;32;20154;-59
2022/12/25 18:52:08;;;;;;;10.32;6.45;;;10.80;99.90;;;;;;7291133;32;20210;-60
2022/12/25 18:56:31;;;;;;;11.88;6.25;;;10.70;99.90;;;;;;7289449;32;20127;-61
2022/12/25 19:00:32;;;;;;;10.40;6.68;;;10.70;99.90;;;;;;7294340;32;20195;-61
2022/12/25 19:04:35;;;;;;;9.82;7.20;;;10.60;99.90;;;;;;7280013;32;20137;-61
2022/12/25 19:08:36;;;;;;;7.60;6.12;;;10.70;99.90;;;;;;7281424;32;20105;-61
2022/12/25 19:12:38;;;;;;;10.82;6.43;;;10.60;99.90;;;;;;7288732;32;20806;-59
2022/12/25 19:16:40;;;;;;;10.82;6.60;;;10.60;99.90;;;;;;7288457;32;20256;-59
2022/12/25 19:20:42;;;;;;;13.25;6.70;;;10.50;99.90;;;;;;7292478;32;20104;-61
2022/12/25 19:24:43;;;;;;;11.07;6.57;;;10.50;99.90;;;;;;7290788;32;20267;-61
2022/12/25 19:28:46;;;;;;;12.18;7.32;;;10.50;99.90;;;;;;7289703;32;20168;-60
2022/12/25 19:32:48;;;;;;;11.12;7.03;;;10.40;99.90;;;;;;7290377;32;20834;-60
2022/12/25 19:36:50;;;;;;;10.07;7.40;;;10.40;99.90;;;;;;7289502;32;20100;-59
2022/12/25 19:41:01;;;;;;;11.43;7.78;;;10.60;99.90;;;;;;7292649;32;20174;-61
2022/12/25 19:45:03;;;;;;;8.70;6.28;;;10.70;99.90;;;;;;7294427;32;20178;-60
2022/12/25 19:49:06;;;;;;;10.10;6.12;;;10.80;99.90;;;;;;7264553;32;20821;-60
2022/12/25 19:53:08;;;;;;;9.63;5.10;;;10.90;99.90;;;;;;7277173;32;20242;-61
2022/12/25 19:57:10;;;;;;;7.87;5.10;;;11.00;99.90;;;;;;7293013;32;20648;-59
2022/12/25 20:01:14;;;;;;;8.13;5.32;;;11.00;99.90;;;;;;7291748;32;20130;-63
2022/12/25 20:05:16;;;;;;;8.68;5.93;;;11.10;99.90;;;;;;7294057;32;20273;-61
2022/12/25 20:09:18;;;;;;;8.85;6.03;;;11.00;99.90;;;;;;7294705;32;20205;-60
2022/12/25 20:13:22;;;;;;;9.43;5.72;;;11.00;99.90;;;;;;7280193;32;20142;-61
2022/12/25 20:17:24;;;;;;;10.00;6.30;;;10.90;99.90;;;;;;7293071;32;20199;-61
2022/12/25 20:21:26;;;;;;;10.30;6.00;;;10.90;99.90;;;;;;7290263;32;20108;-61
2022/12/25 20:25:27;;;;;;;7.62;5.43;;;10.90;99.90;;;;;;7289008;32;20682;-61
2022/12/25 20:29:29;;;;;;;11.05;6.28;;;10.90;99.90;;;;;;7288843;32;20272;-61
2022/12/25 20:33:32;;;;;;;8.90;5.90;;;11.00;99.90;;;;;;7291960;32;20133;-61
2022/12/25 20:37:34;;;;;;;10.93;6.30;;;10.90;99.90;;;;;;7274754;32;20520;-61
2022/12/25 20:41:36;;;;;;;8.50;5.78;;;10.80;99.90;;;;;;7292560;32;20108;-61
2022/12/25 20:45:40;;;;;;;9.70;5.97;;;10.70;99.90;;;;;;7290720;32;20108;-61
2022/12/25 20:49:42;;;;;;;13.23;9.25;;;10.70;99.90;;;;;;7277166;32;20187;-62
2022/12/25 20:53:44;;;;;;;12.18;7.37;;;10.60;99.90;;;;;;7283586;32;20407;-62
2022/12/25 20:57:46;;;;;;;12.80;6.95;;;10.70;99.90;;;;;;7295800;32;20112;-61
2022/12/25 21:01:48;;;;;;;11.32;6.82;;;10.60;99.90;;;;;;7301243;32;20153;-61
2022/12/25 21:05:54;;;;;;;9.55;7.20;;;10.60;99.90;;;;;;7298508;32;20156;-61
2022/12/25 21:09:56;;;;;;;11.77;7.00;;;10.60;99.90;;;;;;7302703;32;20778;-61
2022/12/25 21:13:58;;;;;;;10.35;7.20;;;10.60;99.90;;;;;;7282188;32;20134;-61
2022/12/25 21:18:02;;;;;;;12.65;6.87;;;10.50;99.90;;;;;;7293259;32;20142;-61
2022/12/25 21:22:04;;;;;;;11.75;6.90;;;10.60;99.90;;;;;;7289152;32;20296;-60
2022/12/25 21:26:20;;;;;;;10.88;7.25;;;10.50;99.90;;;;;;7290921;32;20519;-60
2022/12/25 21:30:22;;;;;;;10.95;5.87;;;10.50;99.90;;;;;;7289916;32;20672;-62
2022/12/25 21:34:23;;;;;;;9.43;6.10;;;10.50;99.90;;;;;;7290244;32;20215;-60
2022/12/25 21:38:25;;;;;;;10.40;6.50;;;10.50;99.90;;;;;;7293302;32;20929;-60
2022/12/25 21:42:27;;;;;;;10.80;7.57;;;10.50;99.90;;;;;;7299055;32;20103;-60
2022/12/25 21:46:28;;;;;;;13.88;7.03;;;10.70;99.90;;;;;;7298479;32;20939;-60
2022/12/25 21:54:52;;;;;;;9.90;7.40;;;10.80;99.90;;;;;;7295109;32;20174;-60
2022/12/25 21:58:53;;;;;;;11.82;6.75;;;10.80;99.90;;;;;;7281128;32;20190;-60
2022/12/25 22:02:55;;;;;;;10.57;6.47;;;10.80;99.90;;;;;;7290576;32;20172;-60
2022/12/25 22:19:58;;;;;;;12.73;7.45;;;11.00;99.90;;;;;;7280837;32;20192;-61
2022/12/25 22:24:00;;;;;;;12.02;7.22;;;10.80;99.90;;;;;;7292766;32;20108;-60
2022/12/25 22:28:04;;;;;;;10.57;6.78;;;10.70;99.90;;;;;;7279230;32;20682;-60
2022/12/25 22:32:06;;;;;;;9.15;6.12;;;10.80;99.90;;;;;;7291354;32;20108;-60
2022/12/25 22:36:08;;;;;;;9.50;6.03;;;10.90;99.90;;;;;;7287303;32;20238;-61
2022/12/25 22:40:13;;;;;;;12.00;6.40;;;10.90;99.90;;;;;;7288849;32;20611;-59
2022/12/25 22:44:15;;;;;;;7.32;5.80;;;10.80;99.90;;;;;;7291582;32;20227;-59
2022/12/25 22:48:19;;;;;;;10.48;7.20;;;10.70;99.90;;;;;;7291252;32;20126;-59
2022/12/25 22:52:21;;;;;;;11.35;6.72;;;10.70;99.90;;;;;;7287745;32;20141;-59
2022/12/25 22:56:22;;;;;;;9.60;6.72;;;10.70;99.90;;;;;;7293898;32;20131;-60
2022/12/25 23:00:24;;;;;;;11.00;7.93;;;10.70;99.90;;;;;;7270616;32;20331;-59
2022/12/25 23:04:27;;;;;;;11.38;8.18;;;10.60;99.90;;;;;;7276955;32;20160;-59
2022/12/25 23:08:29;;;;;;;12.15;7.43;;;10.60;99.90;;;;;;7294102;32;20191;-59
2022/12/25 23:16:51;;;;;;;11.48;7.43;;;10.70;99.90;;;;;;7273803;32;20171;-59
2022/12/25 23:29:40;;;;;;;12.43;7.35;;;10.70;99.90;;;;;;7290101;32;20215;-58